sensor_id;sensor_type;location;lat;lon;timestamp;P1;durP1;ratioP1;P2;durP2;ratioP2
1460;SDS011;724;49.910;12.530;2023-03-01T00:01:29;11.40;;;10.80;;
1460;SDS011;724;49.910;12.530;2023-03-01T00:03:57;11.80;;;11.20;;
1460;SDS011;724;49.910;12.530;2023-03-01T00:06:25;11.70;;;11.10;;
1460;SDS011;724;49.910;12.530;2023-03-01T00:08:53;12.10;;;11.50;;
1460;SDS011;724;49.910;12.530;2023-03-01T00:11:22;11.65;;;11.05;;
1460;SDS011;724;49.910;12.530;2023-03-01T00:13:51;12.00;;;11.40;;
1460;SDS011;724;49.910;12.530;2023-03-01T00:16:20;11.48;;;10.88;;
1460;SDS011;724;49.910;12.530;2023-03-01T00:18:48;11.52;;;10.93;;
1460;SDS011;724;49.910;12.530;2023-03-01T00:21:15;11.05;;;10.45;;
1460;SDS011;724;49.910;12.530;2023-03-01T00:23:42;11.85;;;11.25;;
1460;SDS011;724;49.910;12.530;2023-03-01T00:26:10;10.95;;;10.35;;
1460;SDS011;724;49.910;12.530;2023-03-01T00:28:39;11.95;;;11.35;;
1460;SDS011;724;49.910;12.530;2023-03-01T00:31:07;11.52;;;10.93;;
1460;SDS011;724;49.910;12.530;2023-03-01T00:33:35;11.73;;;11.13;;
1460;SDS011;724;49.910;12.530;2023-03-01T00:36:02;12.18;;;11.57;;
1460;SDS011;724;49.910;12.530;2023-03-01T00:38:30;12.10;;;11.50;;
1460;SDS011;724;49.910;12.530;2023-03-01T00:41:02;11.80;;;11.20;;
1460;SDS011;724;49.910;12.530;2023-03-01T00:43:30;11.40;;;10.80;;
1460;SDS011;724;49.910;12.530;2023-03-01T00:46:02;11.80;;;11.20;;
1460;SDS011;724;49.910;12.530;2023-03-01T00:48:30;11.15;;;10.55;;
1460;SDS011;724;49.910;12.530;2023-03-01T00:50:56;11.32;;;10.73;;
1460;SDS011;724;49.910;12.530;2023-03-01T00:53:29;12.02;;;11.43;;
1460;SDS011;724;49.910;12.530;2023-03-01T00:55:57;11.63;;;11.02;;
1460;SDS011;724;49.910;12.530;2023-03-01T00:58:24;11.77;;;11.18;;
1460;SDS011;724;49.910;12.530;2023-03-01T01:00:51;12.15;;;11.55;;
1460;SDS011;724;49.910;12.530;2023-03-01T01:03:19;12.02;;;11.43;;
1460;SDS011;724;49.910;12.530;2023-03-01T01:05:46;11.70;;;11.10;;
1460;SDS011;724;49.910;12.530;2023-03-01T01:08:13;11.60;;;11.00;;
1460;SDS011;724;49.910;12.530;2023-03-01T01:10:40;11.85;;;11.25;;
1460;SDS011;724;49.910;12.530;2023-03-01T01:13:09;11.68;;;11.07;;
1460;SDS011;724;49.910;12.530;2023-03-01T01:15:36;11.02;;;10.43;;
1460;SDS011;724;49.910;12.530;2023-03-01T01:18:05;10.60;;;10.00;;
1460;SDS011;724;49.910;12.530;2023-03-01T01:20:34;11.35;;;10.75;;
1460;SDS011;724;49.910;12.530;2023-03-01T01:23:01;11.63;;;11.02;;
1460;SDS011;724;49.910;12.530;2023-03-01T01:25:30;10.70;;;10.10;;
1460;SDS011;724;49.910;12.530;2023-03-01T01:28:00;11.20;;;10.60;;
1460;SDS011;724;49.910;12.530;2023-03-01T01:30:27;10.93;;;10.32;;
1460;SDS011;724;49.910;12.530;2023-03-01T01:32:54;10.75;;;10.15;;
1460;SDS011;724;49.910;12.530;2023-03-01T01:35:20;10.30;;;9.80;;
1460;SDS011;724;49.910;12.530;2023-03-01T01:37:49;10.90;;;10.30;;
1460;SDS011;724;49.910;12.530;2023-03-01T01:40:15;11.05;;;10.45;;
1460;SDS011;724;49.910;12.530;2023-03-01T01:42:42;11.05;;;10.45;;
1460;SDS011;724;49.910;12.530;2023-03-01T01:45:26;10.60;;;10.00;;
1460;SDS011;724;49.910;12.530;2023-03-01T01:47:57;10.80;;;10.20;;
1460;SDS011;724;49.910;12.530;2023-03-01T01:50:26;10.20;;;9.70;;
1460;SDS011;724;49.910;12.530;2023-03-01T01:53:06;10.60;;;10.00;;
1460;SDS011;724;49.910;12.530;2023-03-01T01:55:35;10.15;;;9.65;;
1460;SDS011;724;49.910;12.530;2023-03-01T01:58:07;10.20;;;9.70;;
1460;SDS011;724;49.910;12.530;2023-03-01T02:00:36;9.60;;;9.10;;
1460;SDS011;724;49.910;12.530;2023-03-01T02:03:05;9.80;;;9.30;;
1460;SDS011;724;49.910;12.530;2023-03-01T02:05:36;9.73;;;9.23;;
1460;SDS011;724;49.910;12.530;2023-03-01T02:08:11;9.50;;;9.00;;
1460;SDS011;724;49.910;12.530;2023-03-01T02:10:39;9.50;;;9.00;;
1460;SDS011;724;49.910;12.530;2023-03-01T02:13:07;9.52;;;9.02;;
1460;SDS011;724;49.910;12.530;2023-03-01T02:15:35;9.65;;;9.15;;
1460;SDS011;724;49.910;12.530;2023-03-01T02:18:04;8.98;;;8.48;;
1460;SDS011;724;49.910;12.530;2023-03-01T02:20:33;9.63;;;9.13;;
1460;SDS011;724;49.910;12.530;2023-03-01T02:23:04;9.35;;;8.85;;
1460;SDS011;724;49.910;12.530;2023-03-01T02:25:35;9.63;;;9.13;;
1460;SDS011;724;49.910;12.530;2023-03-01T02:28:08;9.60;;;9.10;;
1460;SDS011;724;49.910;12.530;2023-03-01T02:30:38;9.90;;;9.40;;
1460;SDS011;724;49.910;12.530;2023-03-01T02:33:26;9.75;;;9.25;;
1460;SDS011;724;49.910;12.530;2023-03-01T02:35:52;9.30;;;8.80;;
1460;SDS011;724;49.910;12.530;2023-03-01T02:38:20;9.00;;;8.50;;
1460;SDS011;724;49.910;12.530;2023-03-01T02:40:48;9.60;;;9.10;;
1460;SDS011;724;49.910;12.530;2023-03-01T02:43:17;9.93;;;9.43;;
1460;SDS011;724;49.910;12.530;2023-03-01T02:45:49;10.10;;;9.60;;
1460;SDS011;724;49.910;12.530;2023-03-01T02:48:17;9.77;;;9.27;;
1460;SDS011;724;49.910;12.530;2023-03-01T02:50:50;9.38;;;8.88;;
1460;SDS011;724;49.910;12.530;2023-03-01T02:53:29;10.00;;;9.50;;
1460;SDS011;724;49.910;12.530;2023-03-01T02:56:02;9.80;;;9.30;;
1460;SDS011;724;49.910;12.530;2023-03-01T02:58:30;10.20;;;9.70;;
1460;SDS011;724;49.910;12.530;2023-03-01T03:00:58;10.35;;;9.85;;
1460;SDS011;724;49.910;12.530;2023-03-01T03:03:25;10.80;;;10.20;;
1460;SDS011;724;49.910;12.530;2023-03-01T03:05:52;9.70;;;9.20;;
1460;SDS011;724;49.910;12.530;2023-03-01T03:08:19;10.48;;;9.93;;
1460;SDS011;724;49.910;12.530;2023-03-01T03:10:48;10.30;;;9.80;;
1460;SDS011;724;49.910;12.530;2023-03-01T03:13:15;10.10;;;9.60;;
1460;SDS011;724;49.910;12.530;2023-03-01T03:15:44;9.45;;;8.95;;
1460;SDS011;724;49.910;12.530;2023-03-01T03:18:12;10.75;;;10.15;;
1460;SDS011;724;49.910;12.530;2023-03-01T03:20:41;10.65;;;10.05;;
1460;SDS011;724;49.910;12.530;2023-03-01T03:23:10;9.48;;;8.98;;
1460;SDS011;724;49.910;12.530;2023-03-01T03:25:37;9.95;;;9.45;;
1460;SDS011;724;49.910;12.530;2023-03-01T03:28:04;9.88;;;9.38;;
1460;SDS011;724;49.910;12.530;2023-03-01T03:30:35;9.63;;;9.13;;
1460;SDS011;724;49.910;12.530;2023-03-01T03:33:04;9.40;;;8.90;;
1460;SDS011;724;49.910;12.530;2023-03-01T03:35:34;9.85;;;9.35;;
1460;SDS011;724;49.910;12.530;2023-03-01T03:38:06;9.80;;;9.30;;
1460;SDS011;724;49.910;12.530;2023-03-01T03:40:40;9.40;;;8.90;;
1460;SDS011;724;49.910;12.530;2023-03-01T03:43:10;9.40;;;8.90;;
1460;SDS011;724;49.910;12.530;2023-03-01T03:45:38;9.40;;;8.90;;
1460;SDS011;724;49.910;12.530;2023-03-01T03:48:06;9.85;;;9.35;;
1460;SDS011;724;49.910;12.530;2023-03-01T03:50:36;9.77;;;9.27;;
1460;SDS011;724;49.910;12.530;2023-03-01T03:53:04;10.30;;;9.80;;
1460;SDS011;724;49.910;12.530;2023-03-01T03:55:32;10.15;;;9.65;;
1460;SDS011;724;49.910;12.530;2023-03-01T03:58:00;10.68;;;10.07;;
1460;SDS011;724;49.910;12.530;2023-03-01T04:00:31;9.27;;;8.77;;
1460;SDS011;724;49.910;12.530;2023-03-01T04:02:59;9.10;;;8.60;;
1460;SDS011;724;49.910;12.530;2023-03-01T04:05:26;8.70;;;8.20;;
1460;SDS011;724;49.910;12.530;2023-03-01T04:07:55;9.00;;;8.50;;
1460;SDS011;724;49.910;12.530;2023-03-01T04:10:27;8.75;;;8.25;;
1460;SDS011;724;49.910;12.530;2023-03-01T04:12:55;9.40;;;8.90;;
1460;SDS011;724;49.910;12.530;2023-03-01T04:15:22;8.77;;;8.27;;
1460;SDS011;724;49.910;12.530;2023-03-01T04:17:50;9.38;;;8.88;;
1460;SDS011;724;49.910;12.530;2023-03-01T04:20:19;8.23;;;7.82;;
1460;SDS011;724;49.910;12.530;2023-03-01T04:22:50;9.05;;;8.55;;
1460;SDS011;724;49.910;12.530;2023-03-01T04:25:19;8.88;;;8.38;;
1460;SDS011;724;49.910;12.530;2023-03-01T04:27:46;9.77;;;9.27;;
1460;SDS011;724;49.910;12.530;2023-03-01T04:30:13;9.25;;;8.75;;
1460;SDS011;724;49.910;12.530;2023-03-01T04:32:40;9.32;;;8.82;;
1460;SDS011;724;49.910;12.530;2023-03-01T04:35:07;8.60;;;8.10;;
1460;SDS011;724;49.910;12.530;2023-03-01T04:37:34;9.55;;;9.05;;
1460;SDS011;724;49.910;12.530;2023-03-01T04:40:01;8.70;;;8.20;;
1460;SDS011;724;49.910;12.530;2023-03-01T04:42:38;8.85;;;8.35;;
1460;SDS011;724;49.910;12.530;2023-03-01T04:45:06;8.55;;;8.05;;
1460;SDS011;724;49.910;12.530;2023-03-01T04:47:39;9.20;;;8.70;;
1460;SDS011;724;49.910;12.530;2023-03-01T04:50:08;9.10;;;8.60;;
1460;SDS011;724;49.910;12.530;2023-03-01T04:52:36;9.63;;;9.13;;
1460;SDS011;724;49.910;12.530;2023-03-01T04:55:03;10.02;;;9.52;;
1460;SDS011;724;49.910;12.530;2023-03-01T04:57:30;9.40;;;8.90;;
1460;SDS011;724;49.910;12.530;2023-03-01T04:59:59;8.93;;;8.43;;
1460;SDS011;724;49.910;12.530;2023-03-01T05:02:26;9.35;;;8.85;;
1460;SDS011;724;49.910;12.530;2023-03-01T05:04:53;9.30;;;8.80;;
1460;SDS011;724;49.910;12.530;2023-03-01T05:07:22;9.40;;;8.90;;
1460;SDS011;724;49.910;12.530;2023-03-01T05:09:49;8.57;;;8.07;;
1460;SDS011;724;49.910;12.530;2023-03-01T05:12:16;9.10;;;8.60;;
1460;SDS011;724;49.910;12.530;2023-03-01T05:14:43;9.02;;;8.52;;
1460;SDS011;724;49.910;12.530;2023-03-01T05:17:11;8.75;;;8.25;;
1460;SDS011;724;49.910;12.530;2023-03-01T05:19:38;8.52;;;8.02;;
1460;SDS011;724;49.910;12.530;2023-03-01T05:22:07;8.80;;;8.30;;
1460;SDS011;724;49.910;12.530;2023-03-01T05:24:34;8.80;;;8.30;;
1460;SDS011;724;49.910;12.530;2023-03-01T05:27:03;8.50;;;8.00;;
1460;SDS011;724;49.910;12.530;2023-03-01T05:29:31;9.00;;;8.50;;
1460;SDS011;724;49.910;12.530;2023-03-01T05:32:00;9.00;;;8.50;;
1460;SDS011;724;49.910;12.530;2023-03-01T05:34:30;8.55;;;8.05;;
1460;SDS011;724;49.910;12.530;2023-03-01T05:36:59;7.40;;;7.00;;
1460;SDS011;724;49.910;12.530;2023-03-01T05:39:27;7.72;;;7.32;;
1460;SDS011;724;49.910;12.530;2023-03-01T05:41:55;8.30;;;7.90;;
1460;SDS011;724;49.910;12.530;2023-03-01T05:44:23;8.00;;;7.60;;
1460;SDS011;724;49.910;12.530;2023-03-01T05:46:50;7.63;;;7.22;;
1460;SDS011;724;49.910;12.530;2023-03-01T05:49:17;7.10;;;6.70;;
1460;SDS011;724;49.910;12.530;2023-03-01T05:51:49;7.20;;;6.80;;
1460;SDS011;724;49.910;12.530;2023-03-01T05:54:17;7.30;;;6.90;;
1460;SDS011;724;49.910;12.530;2023-03-01T05:56:45;6.85;;;6.45;;
1460;SDS011;724;49.910;12.530;2023-03-01T05:59:11;7.65;;;7.25;;
1460;SDS011;724;49.910;12.530;2023-03-01T06:01:41;7.47;;;7.07;;
1460;SDS011;724;49.910;12.530;2023-03-01T06:04:08;7.60;;;7.20;;
1460;SDS011;724;49.910;12.530;2023-03-01T06:06:35;8.20;;;7.80;;
1460;SDS011;724;49.910;12.530;2023-03-01T06:09:04;8.13;;;7.72;;
1460;SDS011;724;49.910;12.530;2023-03-01T06:11:33;8.55;;;8.05;;
1460;SDS011;724;49.910;12.530;2023-03-01T06:13:59;8.00;;;7.60;;
1460;SDS011;724;49.910;12.530;2023-03-01T06:16:26;7.90;;;7.50;;
1460;SDS011;724;49.910;12.530;2023-03-01T06:18:53;7.50;;;7.10;;
1460;SDS011;724;49.910;12.530;2023-03-01T06:21:20;7.97;;;7.57;;
1460;SDS011;724;49.910;12.530;2023-03-01T06:23:46;8.70;;;8.20;;
1460;SDS011;724;49.910;12.530;2023-03-01T06:26:14;9.60;;;9.10;;
1460;SDS011;724;49.910;12.530;2023-03-01T06:28:41;10.75;;;10.15;;
1460;SDS011;724;49.910;12.530;2023-03-01T06:31:11;10.80;;;10.20;;
1460;SDS011;724;49.910;12.530;2023-03-01T06:33:37;11.80;;;11.20;;
1460;SDS011;724;49.910;12.530;2023-03-01T06:36:04;12.18;;;11.57;;
1460;SDS011;724;49.910;12.530;2023-03-01T06:38:32;12.93;;;12.23;;
1460;SDS011;724;49.910;12.530;2023-03-01T06:40:59;13.48;;;12.77;;
1460;SDS011;724;49.910;12.530;2023-03-01T06:43:27;13.30;;;12.60;;
1460;SDS011;724;49.910;12.530;2023-03-01T06:45:54;13.10;;;12.40;;
1460;SDS011;724;49.910;12.530;2023-03-01T06:48:21;13.63;;;12.93;;
1460;SDS011;724;49.910;12.530;2023-03-01T06:50:48;13.75;;;13.05;;
1460;SDS011;724;49.910;12.530;2023-03-01T06:53:14;14.27;;;13.57;;
1460;SDS011;724;49.910;12.530;2023-03-01T06:55:41;13.95;;;13.25;;
1460;SDS011;724;49.910;12.530;2023-03-01T06:58:08;13.98;;;13.27;;
1460;SDS011;724;49.910;12.530;2023-03-01T07:00:37;15.00;;;14.20;;
1460;SDS011;724;49.910;12.530;2023-03-01T07:03:05;14.90;;;14.10;;
1460;SDS011;724;49.910;12.530;2023-03-01T07:05:33;15.00;;;14.20;;
1460;SDS011;724;49.910;12.530;2023-03-01T07:08:00;15.25;;;14.45;;
1460;SDS011;724;49.910;12.530;2023-03-01T07:10:26;15.20;;;14.40;;
1460;SDS011;724;49.910;12.530;2023-03-01T07:12:54;15.73;;;14.93;;
1460;SDS011;724;49.910;12.530;2023-03-01T07:15:21;15.50;;;14.70;;
1460;SDS011;724;49.910;12.530;2023-03-01T07:17:49;16.30;;;15.50;;
1460;SDS011;724;49.910;12.530;2023-03-01T07:20:16;15.95;;;15.15;;
1460;SDS011;724;49.910;12.530;2023-03-01T07:22:43;15.93;;;15.13;;
1460;SDS011;724;49.910;12.530;2023-03-01T07:25:10;15.70;;;14.90;;
1460;SDS011;724;49.910;12.530;2023-03-01T07:27:37;16.00;;;15.20;;
1460;SDS011;724;49.910;12.530;2023-03-01T07:30:04;16.10;;;15.30;;
1460;SDS011;724;49.910;12.530;2023-03-01T07:32:32;16.00;;;15.20;;
1460;SDS011;724;49.910;12.530;2023-03-01T07:35:00;16.38;;;15.57;;
1460;SDS011;724;49.910;12.530;2023-03-01T07:37:27;16.20;;;15.40;;
1460;SDS011;724;49.910;12.530;2023-03-01T07:39:53;16.30;;;15.50;;
1460;SDS011;724;49.910;12.530;2023-03-01T07:42:20;16.50;;;15.70;;
1460;SDS011;724;49.910;12.530;2023-03-01T07:44:47;16.63;;;15.82;;
1460;SDS011;724;49.910;12.530;2023-03-01T07:47:14;16.65;;;15.85;;
1460;SDS011;724;49.910;12.530;2023-03-01T07:49:40;16.42;;;15.63;;
1460;SDS011;724;49.910;12.530;2023-03-01T07:52:10;17.20;;;16.30;;
1460;SDS011;724;49.910;12.530;2023-03-01T07:54:37;17.10;;;16.20;;
1460;SDS011;724;49.910;12.530;2023-03-01T07:57:04;16.90;;;16.00;;
1460;SDS011;724;49.910;12.530;2023-03-01T07:59:30;17.20;;;16.30;;
1460;SDS011;724;49.910;12.530;2023-03-01T08:01:58;16.98;;;16.08;;
1460;SDS011;724;49.910;12.530;2023-03-01T08:04:25;16.92;;;16.02;;
1460;SDS011;724;49.910;12.530;2023-03-01T08:06:52;17.33;;;16.42;;
1460;SDS011;724;49.910;12.530;2023-03-01T08:09:20;17.40;;;16.50;;
1460;SDS011;724;49.910;12.530;2023-03-01T08:11:48;17.60;;;16.70;;
1460;SDS011;724;49.910;12.530;2023-03-01T08:14:14;17.30;;;16.40;;
1460;SDS011;724;49.910;12.530;2023-03-01T08:16:41;17.10;;;16.20;;
1460;SDS011;724;49.910;12.530;2023-03-01T08:19:09;17.40;;;16.50;;
1460;SDS011;724;49.910;12.530;2023-03-01T08:21:37;17.50;;;16.60;;
1460;SDS011;724;49.910;12.530;2023-03-01T08:24:05;17.40;;;16.50;;
1460;SDS011;724;49.910;12.530;2023-03-01T08:26:34;17.40;;;16.50;;
1460;SDS011;724;49.910;12.530;2023-03-01T08:29:01;17.50;;;16.60;;
1460;SDS011;724;49.910;12.530;2023-03-01T08:31:29;16.90;;;16.00;;
1460;SDS011;724;49.910;12.530;2023-03-01T08:34:00;17.00;;;16.10;;
1460;SDS011;724;49.910;12.530;2023-03-01T08:36:30;16.70;;;15.90;;
1460;SDS011;724;49.910;12.530;2023-03-01T08:38:58;17.45;;;16.55;;
1460;SDS011;724;49.910;12.530;2023-03-01T08:41:25;17.30;;;16.40;;
1460;SDS011;724;49.910;12.530;2023-03-01T08:43:54;17.30;;;16.40;;
1460;SDS011;724;49.910;12.530;2023-03-01T08:46:23;16.70;;;15.90;;
1460;SDS011;724;49.910;12.530;2023-03-01T08:48:51;17.27;;;16.38;;
1460;SDS011;724;49.910;12.530;2023-03-01T08:51:18;17.52;;;16.63;;
1460;SDS011;724;49.910;12.530;2023-03-01T08:53:48;17.70;;;16.80;;
1460;SDS011;724;49.910;12.530;2023-03-01T08:56:15;17.40;;;16.50;;
1460;SDS011;724;49.910;12.530;2023-03-01T08:58:44;17.10;;;16.20;;
1460;SDS011;724;49.910;12.530;2023-03-01T09:01:13;17.10;;;16.20;;
1460;SDS011;724;49.910;12.530;2023-03-01T09:03:41;16.90;;;16.00;;
1460;SDS011;724;49.910;12.530;2023-03-01T09:06:09;16.80;;;15.95;;
1460;SDS011;724;49.910;12.530;2023-03-01T09:08:37;17.42;;;16.52;;
1460;SDS011;724;49.910;12.530;2023-03-01T09:11:07;17.13;;;16.23;;
1460;SDS011;724;49.910;12.530;2023-03-01T09:13:35;17.02;;;16.13;;
1460;SDS011;724;49.910;12.530;2023-03-01T09:16:06;17.20;;;16.30;;
1460;SDS011;724;49.910;12.530;2023-03-01T09:18:35;17.00;;;16.10;;
1460;SDS011;724;49.910;12.530;2023-03-01T09:21:02;17.30;;;16.40;;
1460;SDS011;724;49.910;12.530;2023-03-01T09:23:32;16.92;;;16.02;;
1460;SDS011;724;49.910;12.530;2023-03-01T09:25:59;17.05;;;16.15;;
1460;SDS011;724;49.910;12.530;2023-03-01T09:28:26;17.08;;;16.17;;
1460;SDS011;724;49.910;12.530;2023-03-01T09:30:53;17.10;;;16.20;;
1460;SDS011;724;49.910;12.530;2023-03-01T09:33:19;16.70;;;15.90;;
1460;SDS011;724;49.910;12.530;2023-03-01T09:35:49;17.00;;;16.10;;
1460;SDS011;724;49.910;12.530;2023-03-01T09:38:21;16.75;;;15.93;;
1460;SDS011;724;49.910;12.530;2023-03-01T09:40:48;16.65;;;15.85;;
1460;SDS011;724;49.910;12.530;2023-03-01T09:43:15;16.98;;;16.08;;
1460;SDS011;724;49.910;12.530;2023-03-01T09:45:48;16.90;;;16.00;;
1460;SDS011;724;49.910;12.530;2023-03-01T09:48:18;16.65;;;15.85;;
1460;SDS011;724;49.910;12.530;2023-03-01T09:50:49;16.60;;;15.80;;
1460;SDS011;724;49.910;12.530;2023-03-01T09:53:18;16.95;;;16.05;;
1460;SDS011;724;49.910;12.530;2023-03-01T09:55:48;16.60;;;15.80;;
1460;SDS011;724;49.910;12.530;2023-03-01T09:58:27;16.70;;;15.90;;
1460;SDS011;724;49.910;12.530;2023-03-01T10:01:02;16.70;;;15.90;;
1460;SDS011;724;49.910;12.530;2023-03-01T10:03:36;17.10;;;16.20;;
1460;SDS011;724;49.910;12.530;2023-03-01T10:06:10;16.90;;;16.00;;
1460;SDS011;724;49.910;12.530;2023-03-01T10:08:42;16.65;;;15.85;;
1460;SDS011;724;49.910;12.530;2023-03-01T10:11:19;16.90;;;16.02;;
1460;SDS011;724;49.910;12.530;2023-03-01T10:13:49;16.70;;;15.90;;
1460;SDS011;724;49.910;12.530;2023-03-01T10:16:21;17.02;;;16.13;;
1460;SDS011;724;49.910;12.530;2023-03-01T10:18:53;16.90;;;16.00;;
1460;SDS011;724;49.910;12.530;2023-03-01T10:21:27;16.50;;;15.70;;
1460;SDS011;724;49.910;12.530;2023-03-01T10:23:56;16.60;;;15.80;;
1460;SDS011;724;49.910;12.530;2023-03-01T10:26:35;17.10;;;16.20;;
1460;SDS011;724;49.910;12.530;2023-03-01T10:29:23;17.00;;;16.10;;
1460;SDS011;724;49.910;12.530;2023-03-01T10:31:53;16.90;;;16.00;;
1460;SDS011;724;49.910;12.530;2023-03-01T10:34:26;16.75;;;15.93;;
1460;SDS011;724;49.910;12.530;2023-03-01T10:36:57;16.80;;;15.95;;
1460;SDS011;724;49.910;12.530;2023-03-01T10:39:27;17.05;;;16.15;;
1460;SDS011;724;49.910;12.530;2023-03-01T10:41:55;16.92;;;16.02;;
1460;SDS011;724;49.910;12.530;2023-03-01T10:44:38;16.90;;;16.00;;
1460;SDS011;724;49.910;12.530;2023-03-01T10:47:11;16.90;;;16.00;;
1460;SDS011;724;49.910;12.530;2023-03-01T10:49:53;17.10;;;16.20;;
1460;SDS011;724;49.910;12.530;2023-03-01T10:52:30;17.00;;;16.10;;
1460;SDS011;724;49.910;12.530;2023-03-01T10:54:59;17.08;;;16.17;;
1460;SDS011;724;49.910;12.530;2023-03-01T10:57:29;17.45;;;16.55;;
1460;SDS011;724;49.910;12.530;2023-03-01T11:00:09;16.70;;;15.90;;
1460;SDS011;724;49.910;12.530;2023-03-01T11:02:46;16.50;;;15.70;;
1460;SDS011;724;49.910;12.530;2023-03-01T11:05:24;16.85;;;15.98;;
1460;SDS011;724;49.910;12.530;2023-03-01T11:07:55;16.70;;;15.90;;
1460;SDS011;724;49.910;12.530;2023-03-01T11:10:24;16.50;;;15.70;;
1460;SDS011;724;49.910;12.530;2023-03-01T11:12:54;16.40;;;15.60;;
1460;SDS011;724;49.910;12.530;2023-03-01T11:15:33;16.20;;;15.40;;
1460;SDS011;724;49.910;12.530;2023-03-01T11:18:00;16.30;;;15.50;;
1460;SDS011;724;49.910;12.530;2023-03-01T11:20:29;16.40;;;15.60;;
1460;SDS011;724;49.910;12.530;2023-03-01T11:23:00;16.40;;;15.60;;
1460;SDS011;724;49.910;12.530;2023-03-01T11:25:31;16.45;;;15.65;;
1460;SDS011;724;49.910;12.530;2023-03-01T11:28:02;16.13;;;15.32;;
1460;SDS011;724;49.910;12.530;2023-03-01T11:30:48;16.20;;;15.40;;
1460;SDS011;724;49.910;12.530;2023-03-01T11:33:24;16.50;;;15.70;;
1460;SDS011;724;49.910;12.530;2023-03-01T11:36:05;16.35;;;15.55;;
1460;SDS011;724;49.910;12.530;2023-03-01T11:38:40;16.60;;;15.80;;
1460;SDS011;724;49.910;12.530;2023-03-01T11:41:11;16.40;;;15.60;;
1460;SDS011;724;49.910;12.530;2023-03-01T11:43:46;16.55;;;15.75;;
1460;SDS011;724;49.910;12.530;2023-03-01T11:49:22;16.40;;;15.60;;
1460;SDS011;724;49.910;12.530;2023-03-01T11:52:08;16.90;;;16.00;;
1460;SDS011;724;49.910;12.530;2023-03-01T11:54:54;17.10;;;16.20;;
1460;SDS011;724;49.910;12.530;2023-03-01T11:57:35;17.30;;;16.40;;
1460;SDS011;724;49.910;12.530;2023-03-01T12:00:14;17.00;;;16.10;;
1460;SDS011;724;49.910;12.530;2023-03-01T12:03:01;17.23;;;16.33;;
1460;SDS011;724;49.910;12.530;2023-03-01T12:05:55;17.30;;;16.40;;
1460;SDS011;724;49.910;12.530;2023-03-01T12:08:49;17.27;;;16.38;;
1460;SDS011;724;49.910;12.530;2023-03-01T12:11:46;17.02;;;16.13;;
1460;SDS011;724;49.910;12.530;2023-03-01T12:17:25;16.70;;;15.90;;
1460;SDS011;724;49.910;12.530;2023-03-01T12:20:12;17.00;;;16.10;;
1460;SDS011;724;49.910;12.530;2023-03-01T12:22:50;16.75;;;15.93;;
1460;SDS011;724;49.910;12.530;2023-03-01T12:25:25;16.90;;;16.02;;
1460;SDS011;724;49.910;12.530;2023-03-01T12:28:02;16.30;;;15.50;;
1460;SDS011;724;49.910;12.530;2023-03-01T12:30:43;16.30;;;15.50;;
1460;SDS011;724;49.910;12.530;2023-03-01T12:33:25;16.48;;;15.68;;
1460;SDS011;724;49.910;12.530;2023-03-01T12:36:06;16.60;;;15.80;;
1460;SDS011;724;49.910;12.530;2023-03-01T12:38:59;16.80;;;15.95;;
1460;SDS011;724;49.910;12.530;2023-03-01T12:41:38;17.00;;;16.10;;
1460;SDS011;724;49.910;12.530;2023-03-01T12:44:13;16.58;;;15.77;;
1460;SDS011;724;49.910;12.530;2023-03-01T12:46:52;16.00;;;15.20;;
1460;SDS011;724;49.910;12.530;2023-03-01T12:49:30;16.00;;;15.20;;
1460;SDS011;724;49.910;12.530;2023-03-01T12:52:03;16.30;;;15.50;;
1460;SDS011;724;49.910;12.530;2023-03-01T12:54:37;15.95;;;15.15;;
1460;SDS011;724;49.910;12.530;2023-03-01T12:57:07;16.10;;;15.30;;
1460;SDS011;724;49.910;12.530;2023-03-01T12:59:45;15.80;;;15.00;;
1460;SDS011;724;49.910;12.530;2023-03-01T13:02:22;16.00;;;15.20;;
1460;SDS011;724;49.910;12.530;2023-03-01T13:05:02;15.90;;;15.10;;
1460;SDS011;724;49.910;12.530;2023-03-01T13:07:49;15.90;;;15.10;;
1460;SDS011;724;49.910;12.530;2023-03-01T13:10:29;15.63;;;14.82;;
1460;SDS011;724;49.910;12.530;2023-03-01T13:13:08;15.57;;;14.77;;
1460;SDS011;724;49.910;12.530;2023-03-01T13:15:46;15.50;;;14.70;;
1460;SDS011;724;49.910;12.530;2023-03-01T13:18:32;15.77;;;14.98;;
1460;SDS011;724;49.910;12.530;2023-03-01T13:21:00;16.05;;;15.25;;
1460;SDS011;724;49.910;12.530;2023-03-01T13:23:30;15.90;;;15.10;;
1460;SDS011;724;49.910;12.530;2023-03-01T13:26:08;16.00;;;15.20;;
1460;SDS011;724;49.910;12.530;2023-03-01T13:28:48;15.90;;;15.10;;
1460;SDS011;724;49.910;12.530;2023-03-01T13:34:44;15.90;;;15.10;;
1460;SDS011;724;49.910;12.530;2023-03-01T13:37:19;16.50;;;15.70;;
1460;SDS011;724;49.910;12.530;2023-03-01T13:39:58;16.40;;;15.60;;
1460;SDS011;724;49.910;12.530;2023-03-01T13:42:34;16.40;;;15.60;;
1460;SDS011;724;49.910;12.530;2023-03-01T13:45:24;16.45;;;15.65;;
1460;SDS011;724;49.910;12.530;2023-03-01T13:48:01;16.17;;;15.38;;
1460;SDS011;724;49.910;12.530;2023-03-01T13:50:38;16.00;;;15.20;;
1460;SDS011;724;49.910;12.530;2023-03-01T13:53:12;16.00;;;15.20;;
1460;SDS011;724;49.910;12.530;2023-03-01T13:55:44;15.80;;;15.00;;
1460;SDS011;724;49.910;12.530;2023-03-01T13:58:18;16.00;;;15.20;;
1460;SDS011;724;49.910;12.530;2023-03-01T14:00:54;15.60;;;14.80;;
1460;SDS011;724;49.910;12.530;2023-03-01T14:03:25;16.10;;;15.30;;
1460;SDS011;724;49.910;12.530;2023-03-01T14:05:59;16.10;;;15.30;;
1460;SDS011;724;49.910;12.530;2023-03-01T14:08:29;15.75;;;14.95;;
1460;SDS011;724;49.910;12.530;2023-03-01T14:14:00;15.50;;;14.70;;
1460;SDS011;724;49.910;12.530;2023-03-01T14:16:43;15.30;;;14.50;;
1460;SDS011;724;49.910;12.530;2023-03-01T14:19:19;15.50;;;14.70;;
1460;SDS011;724;49.910;12.530;2023-03-01T14:21:52;15.30;;;14.50;;
1460;SDS011;724;49.910;12.530;2023-03-01T14:24:27;15.30;;;14.50;;
1460;SDS011;724;49.910;12.530;2023-03-01T14:26:54;15.70;;;14.90;;
1460;SDS011;724;49.910;12.530;2023-03-01T14:29:25;15.38;;;14.57;;
1460;SDS011;724;49.910;12.530;2023-03-01T14:31:53;15.25;;;14.45;;
1460;SDS011;724;49.910;12.530;2023-03-01T14:34:20;15.40;;;14.60;;
1460;SDS011;724;49.910;12.530;2023-03-01T14:36:48;16.02;;;15.23;;
1460;SDS011;724;49.910;12.530;2023-03-01T14:39:17;15.60;;;14.80;;
1460;SDS011;724;49.910;12.530;2023-03-01T14:41:46;15.35;;;14.55;;
1460;SDS011;724;49.910;12.530;2023-03-01T14:44:14;15.30;;;14.50;;
1460;SDS011;724;49.910;12.530;2023-03-01T14:46:44;15.40;;;14.60;;
1460;SDS011;724;49.910;12.530;2023-03-01T14:49:12;15.20;;;14.40;;
1460;SDS011;724;49.910;12.530;2023-03-01T14:51:43;15.60;;;14.80;;
1460;SDS011;724;49.910;12.530;2023-03-01T14:54:22;15.50;;;14.70;;
1460;SDS011;724;49.910;12.530;2023-03-01T14:56:52;14.90;;;14.10;;
1460;SDS011;724;49.910;12.530;2023-03-01T14:59:21;14.82;;;14.02;;
1460;SDS011;724;49.910;12.530;2023-03-01T15:01:49;14.90;;;14.10;;
1460;SDS011;724;49.910;12.530;2023-03-01T15:04:17;14.90;;;14.10;;
1460;SDS011;724;49.910;12.530;2023-03-01T15:06:45;15.00;;;14.20;;
1460;SDS011;724;49.910;12.530;2023-03-01T15:09:14;15.20;;;14.40;;
1460;SDS011;724;49.910;12.530;2023-03-01T15:11:43;15.30;;;14.50;;
1460;SDS011;724;49.910;12.530;2023-03-01T15:14:27;15.00;;;14.20;;
1460;SDS011;724;49.910;12.530;2023-03-01T15:16:55;14.80;;;14.00;;
1460;SDS011;724;49.910;12.530;2023-03-01T15:19:23;15.00;;;14.20;;
1460;SDS011;724;49.910;12.530;2023-03-01T15:21:53;15.15;;;14.35;;
1460;SDS011;724;49.910;12.530;2023-03-01T15:24:22;15.00;;;14.20;;
1460;SDS011;724;49.910;12.530;2023-03-01T15:26:54;14.88;;;14.07;;
1460;SDS011;724;49.910;12.530;2023-03-01T15:29:27;15.10;;;14.30;;